UCT Elwood — V7HW9 — position and weather

sailwx.info

Track history (hours):
 
Tides and Currents Weather Stations Pressure Air Temp Water Temp Dewpoint Dewpoint Depression Visibility Wind Speed Wind Dir Waves Ship Positions

UCT Elwood

Last reported at 2017-Apr-18 20:17 UTC. Time now 2017-Apr-26 09:46 UTC.
Position N 09°11' W 079°52'.

Type: Ship (hazmat cat B). MMSI: 538002324.

Date/timePositionNaut miles runAvg speedWind from/ knotsBaromVisibWave heightAir tempDewpointWater temp
2017-Apr-18 20:17N 09°11' W 079°52'3 9.1
2017-Apr-18 19:55N 09°13' W 079°55'2 6.0
2017-Apr-18 19:30N 09°15' W 079°55'0 0.1
2017-Apr-18 19:00N 09°15' W 079°55'0 0.0
2017-Apr-18 18:30N 09°15' W 079°55'0 0.0
2017-Apr-18 18:00N 09°15' W 079°55'0 0.1
2017-Apr-18 17:24N 09°15' W 079°55'0 0.1
2017-Apr-18 16:45N 09°15' W 079°55'0 0.1
2017-Apr-18 16:00N 09°15' W 079°55'0 0.0
2017-Apr-18 15:27N 09°15' W 079°55'0 0.0
2017-Apr-18 14:09N 09°15' W 079°55'0 0.0
2017-Apr-18 13:24N 09°15' W 079°55'0 0.0
2017-Apr-18 12:33N 09°15' W 079°55'0 0.0
2017-Apr-18 12:09N 09°15' W 079°55'0 0.0
2017-Apr-18 11:48N 09°15' W 079°55'0 0.0
2017-Apr-18 11:27N 09°15' W 079°55'0 0.1
2017-Apr-18 10:57N 09°15' W 079°55'0 0.1
2017-Apr-18 10:30N 09°15' W 079°55'0 0.0
2017-Apr-18 09:57N 09°15' W 079°55'0 0.0
2017-Apr-18 09:30N 09°15' W 079°55'0 0.0
2017-Apr-18 08:57N 09°15' W 079°55'0 0.0
2017-Apr-18 08:30N 09°15' W 079°55'0 0.0
2017-Apr-18 08:00N 09°15' W 079°55'0 0.0
2017-Apr-18 07:30N 09°15' W 079°55'0 0.0
2017-Apr-18 07:00N 09°15' W 079°55'0 0.0
2017-Apr-18 06:30N 09°15' W 079°55'0 0.0
2017-Apr-18 06:00N 09°15' W 079°55'0 0.0
2017-Apr-18 05:21N 09°15' W 079°55'0 0.0
2017-Apr-18 04:57N 09°15' W 079°55'0 0.0
2017-Apr-18 04:30N 09°15' W 079°55'0 0.0
2017-Apr-18 03:57N 09°15' W 079°55'0 0.0
2017-Apr-18 03:27N 09°15' W 079°55'0 0.0
2017-Apr-18 03:00N 09°15' W 079°55'0 0.0
2017-Apr-18 02:30N 09°15' W 079°55'0 0.0
2017-Apr-18 01:57N 09°15' W 079°55'0 0.0
2017-Apr-18 01:30N 09°15' W 079°55'0 0.0
2017-Apr-18 01:00N 09°15' W 079°55'0 0.0
2017-Apr-18 00:30N 09°15' W 079°55'0 0.0
2017-Apr-18 00:00N 09°15' W 079°55'0 0.0
2017-Apr-17 23:27N 09°15' W 079°55'0 0.1
2017-Apr-17 22:45N 09°15' W 079°55'0 0.2
2017-Apr-17 22:27N 09°15' W 079°55'0 0.0
2017-Apr-17 20:27N 09°15' W 079°55'0 0.0
2017-Apr-17 19:33N 09°15' W 079°55'0 0.1
2017-Apr-17 19:27N 09°15' W 079°55'0 0.0
2017-Apr-17 18:45N 09°15' W 079°55'0 0.2
2017-Apr-17 18:24N 09°15' W 079°55'0 0.1
2017-Apr-17 17:21N 09°15' W 079°55'0 0.1
2017-Apr-17 16:54N 09°15' W 079°55'1 0.4
2017-Apr-17 14:00N 09°16' W 079°55'0 0.4
2017-Apr-17 13:31N 09°16' W 079°55'0 0.4
2017-Apr-17 13:00N 09°17' W 079°55'0 0.4
2017-Apr-17 12:30N 09°17' W 079°55'3 2.0
2017-Apr-17 11:13N 09°19' W 079°55'1 2.6
2017-Apr-17 11:01N 09°20' W 079°55'3 5.3
2017-Apr-17 10:31N 09°23' W 079°55'0 0.4
2017-Apr-17 10:00N 09°22' W 079°56'0 0.0
2017-Apr-17 09:30N 09°22' W 079°56'0 0.0
2017-Apr-17 09:00N 09°22' W 079°56'0 0.0
2017-Apr-17 08:27N 09°22' W 079°56'0 0.0
2017-Apr-17 08:00N 09°22' W 079°56'0 0.0
2017-Apr-17 07:30N 09°22' W 079°56'0 0.0
2017-Apr-17 07:00N 09°22' W 079°56'0 0.0
2017-Apr-17 06:30N 09°22' W 079°56'0 0.1
2017-Apr-17 06:00N 09°22' W 079°55'0 0.1
2017-Apr-17 05:30N 09°22' W 079°55'0 0.0
2017-Apr-17 05:00N 09°22' W 079°55'0 0.0
2017-Apr-17 04:30N 09°22' W 079°55'0 0.0
2017-Apr-17 03:57N 09°22' W 079°55'0 0.0
2017-Apr-17 03:30N 09°22' W 079°55'0 0.0
2017-Apr-17 02:57N 09°22' W 079°55'0 0.0
2017-Apr-17 02:30N 09°22' W 079°55'0 0.0
2017-Apr-17 02:00N 09°22' W 079°55'0 0.0
2017-Apr-17 01:30N 09°22' W 079°55'0 0.0
2017-Apr-17 01:00N 09°22' W 079°55'0 0.0
2017-Apr-17 00:30N 09°22' W 079°55'0 0.0
2017-Apr-17 00:00N 09°22' W 079°55'0 0.0
2017-Apr-16 23:30N 09°22' W 079°55'0 0.0
2017-Apr-16 23:00N 09°22' W 079°55'0 0.0
2017-Apr-16 22:30N 09°22' W 079°55'0 0.0
2017-Apr-16 22:00N 09°22' W 079°55'0 0.0
2017-Apr-16 21:30N 09°22' W 079°55'0 0.0
2017-Apr-16 21:00N 09°22' W 079°55'0 0.0
2017-Apr-16 20:30N 09°22' W 079°55'0 0.0
2017-Apr-16 20:00N 09°22' W 079°55'0 0.0
2017-Apr-16 19:30N 09°22' W 079°55'0 0.0
2017-Apr-16 19:00N 09°22' W 079°55'0 0.0
2017-Apr-16 18:30N 09°22' W 079°56'0 0.0
2017-Apr-16 18:00N 09°22' W 079°56'0 0.0
2017-Apr-16 17:30N 09°22' W 079°56'0 0.3
2017-Apr-16 17:00N 09°22' W 079°55'0 0.9
2017-Apr-16 16:30N 09°23' W 079°55'3 5.9
2017-Apr-16 16:00N 09°26' W 079°55'2 3.1
2017-Apr-16 15:30N 09°27' W 079°56'0 0.4
2017-Apr-16 14:59N 09°27' W 079°56'0 0.0
2017-Apr-16 14:29N 09°27' W 079°56'0 0.0
2017-Apr-16 13:29N 09°27' W 079°56'0 0.0
2017-Apr-16 12:59N 09°27' W 079°56'0 0.0
2017-Apr-16 12:20N 09°27' W 079°56'0 0.0
2017-Apr-16 11:56N 09°27' W 079°56'0 0.0
2017-Apr-16 11:26N 09°27' W 079°56'0 0.0
2017-Apr-16 10:56N 09°27' W 079°56'0 0.0
2017-Apr-16 10:20N 09°27' W 079°56'0 0.0
2017-Apr-16 09:56N 09°27' W 079°56'0 0.1
2017-Apr-16 09:29N 09°27' W 079°56'0 0.0
2017-Apr-16 08:56N 09°27' W 079°56'0 0.0
2017-Apr-16 08:29N 09°27' W 079°56'0 0.0
2017-Apr-16 07:56N 09°27' W 079°56'0 0.0
2017-Apr-16 07:29N 09°27' W 079°56'0 0.0
2017-Apr-16 06:59N 09°27' W 079°56'0 0.0
2017-Apr-16 06:23N 09°27' W 079°56'0 0.0
2017-Apr-16 05:59N 09°27' W 079°56'0 0.0
2017-Apr-16 05:29N 09°27' W 079°56'0 0.0
2017-Apr-16 04:59N 09°27' W 079°56'0 0.0
2017-Apr-16 04:29N 09°27' W 079°56'0 0.0
2017-Apr-16 03:56N 09°27' W 079°56'0 0.0
2017-Apr-16 03:29N 09°27' W 079°56'0 0.0
2017-Apr-16 02:56N 09°27' W 079°56'0 0.0
2017-Apr-16 02:29N 09°27' W 079°56'0 0.0
2017-Apr-16 01:59N 09°27' W 079°56'0 0.0
2017-Apr-16 01:29N 09°27' W 079°56'0 0.0
2017-Apr-16 00:59N 09°27' W 079°56'0 0.0
2017-Apr-16 00:29N 09°27' W 079°56'0 0.0
2017-Apr-15 23:59N 09°27' W 079°56'0 0.0
2017-Apr-15 23:20N 09°27' W 079°56'0 0.0
2017-Apr-15 22:59N 09°27' W 079°56'0 0.0
2017-Apr-15 22:29N 09°27' W 079°56'0 0.0
2017-Apr-15 21:59N 09°27' W 079°56'0 0.0
2017-Apr-15 21:29N 09°27' W 079°56'0 0.0
2017-Apr-15 20:59N 09°27' W 079°56'0 0.0
2017-Apr-15 20:29N 09°27' W 079°56'0 0.0
2017-Apr-15 19:59N 09°27' W 079°56'0 0.0
2017-Apr-15 19:29N 09°27' W 079°56'0 0.0
2017-Apr-15 18:56N 09°27' W 079°56'0 0.0
2017-Apr-15 18:29N 09°27' W 079°56'0 0.0
2017-Apr-15 17:58N 09°27' W 079°56'0 0.1
2017-Apr-15 17:25N 09°27' W 079°56'0 0.0
2017-Apr-15 16:55N 09°27' W 079°56'0 0.0
2017-Apr-15 16:28N 09°27' W 079°56'0 0.0
2017-Apr-15 15:55N 09°27' W 079°56'0 0.0
2017-Apr-15 15:28N 09°27' W 079°56'0 0.0
2017-Apr-15 14:58N 09°27' W 079°56'1 1.8
2017-Apr-15 14:30N 09°27' W 079°56'  
Track history (hours):
 
Tides and Currents Weather Stations Pressure Air Temp Water Temp Dewpoint Dewpoint Depression Visibility Wind Speed Wind Dir Waves Ship Positions

UCT Elwood

Last reported at 2017-Apr-18 20:17 UTC. Time now 2017-Apr-26 09:46 UTC.
Position N 09°11' W 079°52'.

Type: Ship (hazmat cat B). MMSI: 538002324.

Date/timePositionNaut miles runAvg speedWind from/ knotsBaromVisibWave heightAir tempDewpointWater temp
2017-Apr-18 20:17N 09°11' W 079°52'3 9.1
2017-Apr-18 19:55N 09°13' W 079°55'2 6.0
2017-Apr-18 19:30N 09°15' W 079°55'0 0.1
2017-Apr-18 19:00N 09°15' W 079°55'0 0.0
2017-Apr-18 18:30N 09°15' W 079°55'0 0.0
2017-Apr-18 18:00N 09°15' W 079°55'0 0.1
2017-Apr-18 17:24N 09°15' W 079°55'0 0.1
2017-Apr-18 16:45N 09°15' W 079°55'0 0.1
2017-Apr-18 16:00N 09°15' W 079°55'0 0.0
2017-Apr-18 15:27N 09°15' W 079°55'0 0.0
2017-Apr-18 14:09N 09°15' W 079°55'0 0.0
2017-Apr-18 13:24N 09°15' W 079°55'0 0.0
2017-Apr-18 12:33N 09°15' W 079°55'0 0.0
2017-Apr-18 12:09N 09°15' W 079°55'0 0.0
2017-Apr-18 11:48N 09°15' W 079°55'0 0.0
2017-Apr-18 11:27N 09°15' W 079°55'0 0.1
2017-Apr-18 10:57N 09°15' W 079°55'0 0.1
2017-Apr-18 10:30N 09°15' W 079°55'0 0.0
2017-Apr-18 09:57N 09°15' W 079°55'0 0.0
2017-Apr-18 09:30N 09°15' W 079°55'0 0.0
2017-Apr-18 08:57N 09°15' W 079°55'0 0.0
2017-Apr-18 08:30N 09°15' W 079°55'0 0.0
2017-Apr-18 08:00N 09°15' W 079°55'0 0.0
2017-Apr-18 07:30N 09°15' W 079°55'0 0.0
2017-Apr-18 07:00N 09°15' W 079°55'0 0.0
2017-Apr-18 06:30N 09°15' W 079°55'0 0.0
2017-Apr-18 06:00N 09°15' W 079°55'0 0.0
2017-Apr-18 05:21N 09°15' W 079°55'0 0.0
2017-Apr-18 04:57N 09°15' W 079°55'0 0.0
2017-Apr-18 04:30N 09°15' W 079°55'0 0.0
2017-Apr-18 03:57N 09°15' W 079°55'0 0.0
2017-Apr-18 03:27N 09°15' W 079°55'0 0.0
2017-Apr-18 03:00N 09°15' W 079°55'0 0.0
2017-Apr-18 02:30N 09°15' W 079°55'0 0.0
2017-Apr-18 01:57N 09°15' W 079°55'0 0.0
2017-Apr-18 01:30N 09°15' W 079°55'0 0.0
2017-Apr-18 01:00N 09°15' W 079°55'0 0.0
2017-Apr-18 00:30N 09°15' W 079°55'0 0.0
2017-Apr-18 00:00N 09°15' W 079°55'0 0.0
2017-Apr-17 23:27N 09°15' W 079°55'0 0.1
2017-Apr-17 22:45N 09°15' W 079°55'0 0.2
2017-Apr-17 22:27N 09°15' W 079°55'0 0.0
2017-Apr-17 20:27N 09°15' W 079°55'0 0.0
2017-Apr-17 19:33N 09°15' W 079°55'0 0.1
2017-Apr-17 19:27N 09°15' W 079°55'0 0.0
2017-Apr-17 18:45N 09°15' W 079°55'0 0.2
2017-Apr-17 18:24N 09°15' W 079°55'0 0.1
2017-Apr-17 17:21N 09°15' W 079°55'0 0.1
2017-Apr-17 16:54N 09°15' W 079°55'1 0.4
2017-Apr-17 14:00N 09°16' W 079°55'0 0.4
2017-Apr-17 13:31N 09°16' W 079°55'0 0.4
2017-Apr-17 13:00N 09°17' W 079°55'0 0.4
2017-Apr-17 12:30N 09°17' W 079°55'3 2.0
2017-Apr-17 11:13N 09°19' W 079°55'1 2.6
2017-Apr-17 11:01N 09°20' W 079°55'3 5.3
2017-Apr-17 10:31N 09°23' W 079°55'0 0.4
2017-Apr-17 10:00N 09°22' W 079°56'0 0.0
2017-Apr-17 09:30N 09°22' W 079°56'0 0.0
2017-Apr-17 09:00N 09°22' W 079°56'0 0.0
2017-Apr-17 08:27N 09°22' W 079°56'0 0.0
2017-Apr-17 08:00N 09°22' W 079°56'0 0.0
2017-Apr-17 07:30N 09°22' W 079°56'0 0.0
2017-Apr-17 07:00N 09°22' W 079°56'0 0.0
2017-Apr-17 06:30N 09°22' W 079°56'0 0.1
2017-Apr-17 06:00N 09°22' W 079°55'0 0.1
2017-Apr-17 05:30N 09°22' W 079°55'0 0.0
2017-Apr-17 05:00N 09°22' W 079°55'0 0.0
2017-Apr-17 04:30N 09°22' W 079°55'0 0.0
2017-Apr-17 03:57N 09°22' W 079°55'0 0.0
2017-Apr-17 03:30N 09°22' W 079°55'0 0.0
2017-Apr-17 02:57N 09°22' W 079°55'0 0.0
2017-Apr-17 02:30N 09°22' W 079°55'0 0.0
2017-Apr-17 02:00N 09°22' W 079°55'0 0.0
2017-Apr-17 01:30N 09°22' W 079°55'0 0.0
2017-Apr-17 01:00N 09°22' W 079°55'0 0.0
2017-Apr-17 00:30N 09°22' W 079°55'0 0.0
2017-Apr-17 00:00N 09°22' W 079°55'0 0.0
2017-Apr-16 23:30N 09°22' W 079°55'0 0.0
2017-Apr-16 23:00N 09°22' W 079°55'0 0.0
2017-Apr-16 22:30N 09°22' W 079°55'0 0.0
2017-Apr-16 22:00N 09°22' W 079°55'0 0.0
2017-Apr-16 21:30N 09°22' W 079°55'0 0.0
2017-Apr-16 21:00N 09°22' W 079°55'0 0.0
2017-Apr-16 20:30N 09°22' W 079°55'0 0.0
2017-Apr-16 20:00N 09°22' W 079°55'0 0.0
2017-Apr-16 19:30N 09°22' W 079°55'0 0.0
2017-Apr-16 19:00N 09°22' W 079°55'0 0.0
2017-Apr-16 18:30N 09°22' W 079°56'0 0.0
2017-Apr-16 18:00N 09°22' W 079°56'0 0.0
2017-Apr-16 17:30N 09°22' W 079°56'0 0.3
2017-Apr-16 17:00N 09°22' W 079°55'0 0.9
2017-Apr-16 16:30N 09°23' W 079°55'3 5.9
2017-Apr-16 16:00N 09°26' W 079°55'2 3.1
2017-Apr-16 15:30N 09°27' W 079°56'0 0.4
2017-Apr-16 14:59N 09°27' W 079°56'0 0.0
2017-Apr-16 14:29N 09°27' W 079°56'0 0.0
2017-Apr-16 13:29N 09°27' W 079°56'0 0.0
2017-Apr-16 12:59N 09°27' W 079°56'0 0.0
2017-Apr-16 12:20N 09°27' W 079°56'0 0.0
2017-Apr-16 11:56N 09°27' W 079°56'0 0.0
2017-Apr-16 11:26N 09°27' W 079°56'0 0.0
2017-Apr-16 10:56N 09°27' W 079°56'0 0.0
2017-Apr-16 10:20N 09°27' W 079°56'0 0.0
2017-Apr-16 09:56N 09°27' W 079°56'0 0.1
2017-Apr-16 09:29N 09°27' W 079°56'0 0.0
2017-Apr-16 08:56N 09°27' W 079°56'0 0.0
2017-Apr-16 08:29N 09°27' W 079°56'0 0.0
2017-Apr-16 07:56N 09°27' W 079°56'0 0.0
2017-Apr-16 07:29N 09°27' W 079°56'0 0.0
2017-Apr-16 06:59N 09°27' W 079°56'0 0.0
2017-Apr-16 06:23N 09°27' W 079°56'0 0.0
2017-Apr-16 05:59N 09°27' W 079°56'0 0.0
2017-Apr-16 05:29N 09°27' W 079°56'0 0.0
2017-Apr-16 04:59N 09°27' W 079°56'0 0.0
2017-Apr-16 04:29N 09°27' W 079°56'0 0.0
2017-Apr-16 03:56N 09°27' W 079°56'0 0.0
2017-Apr-16 03:29N 09°27' W 079°56'0 0.0
2017-Apr-16 02:56N 09°27' W 079°56'0 0.0
2017-Apr-16 02:29N 09°27' W 079°56'0 0.0
2017-Apr-16 01:59N 09°27' W 079°56'0 0.0
2017-Apr-16 01:29N 09°27' W 079°56'0 0.0
2017-Apr-16 00:59N 09°27' W 079°56'0 0.0
2017-Apr-16 00:29N 09°27' W 079°56'0 0.0
2017-Apr-15 23:59N 09°27' W 079°56'0 0.0
2017-Apr-15 23:20N 09°27' W 079°56'0 0.0
2017-Apr-15 22:59N 09°27' W 079°56'0 0.0
2017-Apr-15 22:29N 09°27' W 079°56'0 0.0
2017-Apr-15 21:59N 09°27' W 079°56'0 0.0
2017-Apr-15 21:29N 09°27' W 079°56'0 0.0
2017-Apr-15 20:59N 09°27' W 079°56'0 0.0
2017-Apr-15 20:29N 09°27' W 079°56'0 0.0
2017-Apr-15 19:59N 09°27' W 079°56'0 0.0
2017-Apr-15 19:29N 09°27' W 079°56'0 0.0
2017-Apr-15 18:56N 09°27' W 079°56'0 0.0
2017-Apr-15 18:29N 09°27' W 079°56'0 0.0
2017-Apr-15 17:58N 09°27' W 079°56'0 0.1
2017-Apr-15 17:25N 09°27' W 079°56'0 0.0
2017-Apr-15 16:55N 09°27' W 079°56'0 0.0
2017-Apr-15 16:28N 09°27' W 079°56'0 0.0
2017-Apr-15 15:55N 09°27' W 079°56'0 0.0
2017-Apr-15 15:28N 09°27' W 079°56'0 0.0
2017-Apr-15 14:58N 09°27' W 079°56'1 1.8
2017-Apr-15 14:30N 09°27' W 079°56'  

Dump ship's entire track history